Time;durP1;ratioP1;P1;durP2;ratioP2;P2;SDS_P1;SDS_P2;PMS_P1;PMS_P2;Temp;Humidity;BMP_temperature;BMP_pressure;BME280_temperature;BME280_humidity;BME280_pressure;Samples;Min_cycle;Max_cycle;Signal;HPM_P1;HPM_P2
2021/03/16 00:00:13;;;;;;;;;;;21.90;34.30;;;;;;491583;240;1048;-45
2021/03/16 00:02:14;;;;;;;;;;;21.90;34.30;;;;;;491528;240;1119;-45
2021/03/16 00:04:17;;;;;;;;;;;21.90;34.30;;;;;;491728;240;1001;-45
2021/03/16 00:06:17;;;;;;;;;;;21.90;34.30;;;;;;491502;241;1434;-44
2021/03/16 00:08:18;;;;;;;;;;;21.90;34.30;;;;;;491698;240;996;-45
2021/03/16 00:10:19;;;;;;;;;;;21.90;34.30;;;;;;491745;240;2183;-44
2021/03/16 00:12:20;;;;;;;;;;;21.90;34.30;;;;;;491595;240;1115;-45
2021/03/16 00:14:22;;;;;;;;;;;21.90;34.30;;;;;;491610;240;1090;-45
2021/03/16 00:16:26;;;;;;;;;;;21.90;34.30;;;;;;491814;240;1515;-45
2021/03/16 00:18:25;;;;;;;;;;;21.90;34.30;;;;;;491648;241;1725;-45
2021/03/16 00:20:26;;;;;;;;;;;21.90;34.30;;;;;;491538;240;1047;-45
2021/03/16 00:22:27;;;;;;;;;;;21.90;34.30;;;;;;491728;240;1165;-45
2021/03/16 00:24:28;;;;;;;;;;;21.90;34.40;;;;;;491992;240;1095;-44
2021/03/16 00:26:30;;;;;;;;;;;22.00;34.20;;;;;;491641;240;1217;-45
2021/03/16 00:28:31;;;;;;;;;;;21.80;34.30;;;;;;491967;240;1063;-45
2021/03/16 00:30:32;;;;;;;;;;;21.30;35.20;;;;;;491562;240;2200;-45
2021/03/16 00:32:33;;;;;;;;;;;20.80;36.20;;;;;;491585;241;1047;-44
2021/03/16 00:34:35;;;;;;;;;;;20.40;36.80;;;;;;491746;240;1147;-44
2021/03/16 00:36:36;;;;;;;;;;;20.20;37.40;;;;;;491560;241;1060;-44
2021/03/16 00:38:37;;;;;;;;;;;20.00;37.70;;;;;;491543;240;1143;-44
2021/03/16 00:40:39;;;;;;;;;;;19.90;37.90;;;;;;491640;238;1307;-45
2021/03/16 00:42:40;;;;;;;;;;;19.80;38.20;;;;;;491669;240;1045;-44
2021/03/16 00:44:41;;;;;;;;;;;19.60;38.40;;;;;;491638;240;1117;-44
2021/03/16 00:46:42;;;;;;;;;;;19.50;38.60;;;;;;491736;240;1150;-44
2021/03/16 00:48:44;;;;;;;;;;;19.50;38.70;;;;;;491634;240;1057;-44
2021/03/16 00:50:45;;;;;;;;;;;19.40;38.80;;;;;;491687;240;2188;-45
2021/03/16 00:52:46;;;;;;;;;;;19.40;38.90;;;;;;491561;240;1518;-44
2021/03/16 00:54:47;;;;;;;;;;;19.40;39.00;;;;;;491797;240;1034;-44
2021/03/16 00:56:49;;;;;;;;;;;19.30;39.10;;;;;;491575;240;1203;-44
2021/03/16 00:58:50;;;;;;;;;;;19.30;39.20;;;;;;491663;240;1059;-44
2021/03/16 01:00:51;;;;;;;;;;;19.30;39.20;;;;;;491613;240;1085;-44
2021/03/16 01:02:53;;;;;;;;;;;19.20;39.20;;;;;;491871;240;1022;-44
2021/03/16 01:04:54;;;;;;;;;;;19.20;39.20;;;;;;491638;240;1282;-44
2021/03/16 01:06:55;;;;;;;;;;;19.10;39.20;;;;;;491634;240;1213;-44
2021/03/16 01:08:57;;;;;;;;;;;19.10;39.30;;;;;;491644;242;1113;-44
2021/03/16 01:10:58;;;;;;;;;;;19.10;39.50;;;;;;491650;240;2183;-44
2021/03/16 01:12:59;;;;;;;;;;;19.00;39.40;;;;;;491802;240;1062;-44
2021/03/16 01:15:00;;;;;;;;;;;19.00;39.50;;;;;;491647;240;1078;-44
2021/03/16 01:17:02;;;;;;;;;;;19.00;39.50;;;;;;491727;240;1030;-44
2021/03/16 01:19:03;;;;;;;;;;;18.90;39.60;;;;;;491742;240;1040;-44
2021/03/16 01:21:04;;;;;;;;;;;18.90;39.60;;;;;;491691;240;1087;-44
2021/03/16 01:23:06;;;;;;;;;;;18.90;39.60;;;;;;491824;240;1037;-44
2021/03/16 01:25:07;;;;;;;;;;;18.90;39.60;;;;;;491832;240;1025;-44
2021/03/16 01:27:08;;;;;;;;;;;18.90;39.70;;;;;;491617;240;1143;-44
2021/03/16 01:29:09;;;;;;;;;;;18.80;39.70;;;;;;492073;240;1044;-44
2021/03/16 01:31:11;;;;;;;;;;;18.80;39.80;;;;;;491625;240;2199;-45
2021/03/16 01:33:12;;;;;;;;;;;18.80;39.70;;;;;;491626;240;1196;-44
2021/03/16 01:35:15;;;;;;;;;;;18.80;39.70;;;;;;492102;240;1123;-44
2021/03/16 01:37:14;;;;;;;;;;;18.80;39.70;;;;;;491576;240;2385;-44
2021/03/16 01:39:16;;;;;;;;;;;18.80;39.70;;;;;;491708;240;1085;-44
2021/03/16 01:41:17;;;;;;;;;;;18.80;39.70;;;;;;491805;238;1260;-44
2021/03/16 01:43:19;;;;;;;;;;;18.80;39.80;;;;;;491760;240;1287;-44
2021/03/16 01:45:20;;;;;;;;;;;18.70;39.90;;;;;;491642;240;1080;-44
2021/03/16 01:47:22;;;;;;;;;;;18.60;39.90;;;;;;491799;240;1185;-44
2021/03/16 01:49:23;;;;;;;;;;;18.60;40.00;;;;;;491685;241;1425;-44
2021/03/16 01:51:24;;;;;;;;;;;18.50;40.10;;;;;;491641;240;2145;-44
2021/03/16 01:53:25;;;;;;;;;;;18.50;40.30;;;;;;491709;240;1016;-44
2021/03/16 01:55:26;;;;;;;;;;;18.40;40.30;;;;;;491634;240;1086;-44
2021/03/16 01:57:28;;;;;;;;;;;18.40;40.30;;;;;;491688;240;1203;-44
2021/03/16 01:59:29;;;;;;;;;;;18.40;40.40;;;;;;491815;240;972;-44
2021/03/16 02:01:31;;;;;;;;;;;18.40;40.40;;;;;;492126;240;1059;-44
2021/03/16 02:03:32;;;;;;;;;;;18.40;40.40;;;;;;491865;240;1022;-44
2021/03/16 02:05:33;;;;;;;;;;;18.40;40.40;;;;;;491789;240;1048;-44
2021/03/16 02:07:34;;;;;;;;;;;18.30;40.30;;;;;;491582;240;1034;-44
2021/03/16 02:09:36;;;;;;;;;;;18.30;40.40;;;;;;491638;240;1008;-44
2021/03/16 02:11:37;;;;;;;;;;;18.30;40.50;;;;;;491624;240;2140;-44
2021/03/16 02:13:38;;;;;;;;;;;18.30;40.50;;;;;;491592;241;1065;-44
2021/03/16 02:15:40;;;;;;;;;;;18.20;40.50;;;;;;491756;240;1038;-44
2021/03/16 02:17:41;;;;;;;;;;;18.20;40.50;;;;;;491942;240;1067;-44
2021/03/16 02:19:42;;;;;;;;;;;18.30;40.50;;;;;;491752;240;1193;-44
2021/03/16 02:21:44;;;;;;;;;;;18.20;40.50;;;;;;491902;240;1026;-44
2021/03/16 02:23:45;;;;;;;;;;;18.20;40.50;;;;;;491590;240;1103;-44
2021/03/16 02:25:46;;;;;;;;;;;18.20;40.50;;;;;;491626;240;1069;-44
2021/03/16 02:27:47;;;;;;;;;;;18.20;40.50;;;;;;491710;240;1153;-44
2021/03/16 02:29:49;;;;;;;;;;;18.20;40.50;;;;;;491941;240;1082;-44
2021/03/16 02:31:50;;;;;;;;;;;18.20;40.50;;;;;;491833;240;2180;-44
2021/03/16 02:33:51;;;;;;;;;;;18.20;40.50;;;;;;491682;240;1060;-44
2021/03/16 02:35:53;;;;;;;;;;;18.20;40.50;;;;;;491665;240;1404;-44
2021/03/16 02:37:54;;;;;;;;;;;18.20;40.50;;;;;;491753;240;1014;-44
2021/03/16 02:39:55;;;;;;;;;;;18.20;40.50;;;;;;491714;240;948;-44
2021/03/16 02:41:57;;;;;;;;;;;18.20;40.50;;;;;;491720;240;1243;-44
2021/03/16 02:43:58;;;;;;;;;;;18.20;40.40;;;;;;491522;240;1082;-44
2021/03/16 02:45:59;;;;;;;;;;;18.10;40.50;;;;;;491565;240;1249;-44
2021/03/16 02:48:01;;;;;;;;;;;18.10;40.50;;;;;;491957;240;1591;-44
2021/03/16 02:50:02;;;;;;;;;;;18.10;40.50;;;;;;492153;240;958;-44
2021/03/16 02:52:03;;;;;;;;;;;18.10;40.50;;;;;;491840;240;2129;-44
2021/03/16 02:54:04;;;;;;;;;;;18.10;40.50;;;;;;492117;240;1029;-44
2021/03/16 02:56:06;;;;;;;;;;;18.10;40.60;;;;;;491877;240;1166;-44
2021/03/16 02:58:07;;;;;;;;;;;18.00;40.60;;;;;;491598;240;1180;-44
2021/03/16 03:00:08;;;;;;;;;;;18.00;40.60;;;;;;492062;240;1068;-44
2021/03/16 03:02:10;;;;;;;;;;;18.00;40.60;;;;;;492086;240;1167;-44
2021/03/16 03:04:11;;;;;;;;;;;18.00;40.60;;;;;;491856;240;1161;-44
2021/03/16 03:06:12;;;;;;;;;;;18.00;40.60;;;;;;492077;240;1070;-44
2021/03/16 03:08:13;;;;;;;;;;;18.00;40.60;;;;;;491904;240;1040;-44
2021/03/16 03:10:15;;;;;;;;;;;18.00;40.60;;;;;;492139;240;1026;-44
2021/03/16 03:12:16;;;;;;;;;;;18.00;40.60;;;;;;491748;239;2140;-44
2021/03/16 03:14:17;;;;;;;;;;;18.00;40.70;;;;;;491725;240;1059;-44
2021/03/16 03:16:18;;;;;;;;;;;18.00;40.70;;;;;;491670;240;1051;-44
2021/03/16 03:18:20;;;;;;;;;;;18.00;40.50;;;;;;491647;240;1073;-44
2021/03/16 03:20:21;;;;;;;;;;;18.40;40.00;;;;;;492069;240;1099;-44
2021/03/16 03:22:22;;;;;;;;;;;18.80;39.10;;;;;;491698;240;1040;-44
2021/03/16 03:24:24;;;;;;;;;;;19.10;38.30;;;;;;492092;240;1031;-44
2021/03/16 03:26:25;;;;;;;;;;;19.30;37.70;;;;;;491729;240;1043;-45
2021/03/16 03:28:26;;;;;;;;;;;19.50;37.40;;;;;;491715;241;1178;-45
2021/03/16 03:30:27;;;;;;;;;;;19.70;37.20;;;;;;492135;240;1059;-44
2021/03/16 03:32:29;;;;;;;;;;;19.80;37.00;;;;;;491976;240;2144;-45
2021/03/16 03:34:30;;;;;;;;;;;19.90;36.80;;;;;;491950;240;1042;-44
2021/03/16 03:36:31;;;;;;;;;;;19.90;36.60;;;;;;491666;240;1067;-44
2021/03/16 03:38:33;;;;;;;;;;;20.00;36.50;;;;;;491732;240;1129;-44
2021/03/16 03:40:34;;;;;;;;;;;20.10;36.40;;;;;;491890;240;1060;-45
2021/03/16 03:42:35;;;;;;;;;;;20.10;36.30;;;;;;491690;240;1258;-45
2021/03/16 03:44:36;;;;;;;;;;;20.10;36.20;;;;;;491805;240;1205;-45
2021/03/16 03:46:38;;;;;;;;;;;20.20;36.20;;;;;;491813;240;1152;-45
2021/03/16 03:48:39;;;;;;;;;;;20.20;36.00;;;;;;492148;240;1063;-44
2021/03/16 03:50:40;;;;;;;;;;;20.30;36.00;;;;;;491685;240;981;-44
2021/03/16 03:52:41;;;;;;;;;;;20.30;35.90;;;;;;491956;240;2180;-45
2021/03/16 03:54:43;;;;;;;;;;;20.30;35.80;;;;;;491635;240;1481;-44
2021/03/16 03:56:44;;;;;;;;;;;20.40;35.80;;;;;;491901;240;1426;-45
2021/03/16 03:58:46;;;;;;;;;;;20.40;35.70;;;;;;491783;240;1197;-44
2021/03/16 04:00:47;;;;;;;;;;;20.50;35.70;;;;;;492092;240;1013;-44
2021/03/16 04:02:48;;;;;;;;;;;20.50;35.60;;;;;;491638;240;1171;-45
2021/03/16 04:04:49;;;;;;;;;;;20.50;35.60;;;;;;491999;240;1064;-45
2021/03/16 04:06:51;;;;;;;;;;;20.50;35.50;;;;;;491724;240;1043;-45
2021/03/16 04:08:52;;;;;;;;;;;20.50;35.50;;;;;;492101;241;1079;-44
2021/03/16 04:10:53;;;;;;;;;;;20.60;35.50;;;;;;491940;240;1110;-44
2021/03/16 04:12:54;;;;;;;;;;;20.60;35.40;;;;;;491508;239;2188;-45
2021/03/16 04:14:56;;;;;;;;;;;20.70;35.40;;;;;;491616;241;1057;-45
2021/03/16 04:16:57;;;;;;;;;;;20.70;35.40;;;;;;491726;241;1100;-45
2021/03/16 04:18:58;;;;;;;;;;;20.70;35.40;;;;;;491794;240;1013;-44
2021/03/16 04:21:00;;;;;;;;;;;20.70;35.30;;;;;;491611;240;1157;-45
2021/03/16 04:23:01;;;;;;;;;;;20.70;35.30;;;;;;491720;240;1036;-45
2021/03/16 04:25:02;;;;;;;;;;;20.70;35.20;;;;;;491749;240;1001;-45
2021/03/16 04:27:03;;;;;;;;;;;20.70;35.20;;;;;;491600;240;1158;-44
2021/03/16 04:29:05;;;;;;;;;;;20.80;35.20;;;;;;491615;240;1154;-45
2021/03/16 04:31:06;;;;;;;;;;;20.80;35.10;;;;;;491581;240;2188;-45
2021/03/16 04:33:07;;;;;;;;;;;20.80;35.10;;;;;;491697;240;1048;-44
2021/03/16 04:35:09;;;;;;;;;;;20.80;35.10;;;;;;491567;240;1062;-45
2021/03/16 04:37:10;;;;;;;;;;;20.90;35.10;;;;;;491634;240;1136;-45
2021/03/16 04:39:11;;;;;;;;;;;20.90;35.10;;;;;;491664;240;1036;-44
2021/03/16 04:41:12;;;;;;;;;;;20.90;35.10;;;;;;491588;240;1336;-45
2021/03/16 04:43:14;;;;;;;;;;;20.90;35.00;;;;;;491974;240;1116;-44
2021/03/16 04:45:15;;;;;;;;;;;20.90;35.00;;;;;;491862;240;1081;-45
2021/03/16 04:47:16;;;;;;;;;;;20.90;35.00;;;;;;491627;240;1215;-45
2021/03/16 04:49:17;;;;;;;;;;;20.90;35.00;;;;;;492029;241;1048;-44
2021/03/16 04:51:19;;;;;;;;;;;20.90;35.00;;;;;;491921;240;2188;-45
2021/03/16 04:53:20;;;;;;;;;;;21.00;35.00;;;;;;491858;241;1025;-45
2021/03/16 04:55:21;;;;;;;;;;;21.00;34.90;;;;;;491653;241;1111;-45
2021/03/16 04:57:23;;;;;;;;;;;21.00;34.90;;;;;;491588;240;1136;-45
2021/03/16 04:59:24;;;;;;;;;;;21.00;34.90;;;;;;491703;240;1162;-45
2021/03/16 05:01:25;;;;;;;;;;;21.00;34.90;;;;;;491538;240;1459;-44
2021/03/16 05:03:26;;;;;;;;;;;21.00;34.80;;;;;;491451;242;1053;-44
2021/03/16 05:05:28;;;;;;;;;;;21.10;34.90;;;;;;491574;240;1020;-45
2021/03/16 05:07:29;;;;;;;;;;;21.10;34.80;;;;;;491604;240;1232;-45
2021/03/16 05:09:30;;;;;;;;;;;21.10;34.80;;;;;;491667;240;1020;-45
2021/03/16 05:11:32;;;;;;;;;;;21.10;34.80;;;;;;491824;240;2188;-45
2021/03/16 05:13:33;;;;;;;;;;;21.10;34.80;;;;;;491611;240;1167;-45
2021/03/16 05:15:34;;;;;;;;;;;21.10;34.80;;;;;;491758;240;1438;-44
2021/03/16 05:17:35;;;;;;;;;;;21.10;34.70;;;;;;491687;240;1197;-44
2021/03/16 05:19:37;;;;;;;;;;;21.10;34.80;;;;;;491667;241;1067;-45
2021/03/16 05:21:38;;;;;;;;;;;21.10;34.80;;;;;;491482;240;1250;-44
2021/03/16 05:23:39;;;;;;;;;;;21.10;34.70;;;;;;491480;240;1075;-45
2021/03/16 05:25:40;;;;;;;;;;;21.10;34.70;;;;;;491581;240;1171;-45
2021/03/16 05:27:42;;;;;;;;;;;21.10;34.70;;;;;;491574;240;1175;-44
2021/03/16 05:29:43;;;;;;;;;;;21.20;34.80;;;;;;491501;240;1239;-45
2021/03/16 05:31:44;;;;;;;;;;;21.20;34.70;;;;;;491573;240;2188;-45
2021/03/16 05:33:46;;;;;;;;;;;21.20;34.70;;;;;;491742;240;1133;-44
2021/03/16 05:35:47;;;;;;;;;;;21.20;34.70;;;;;;491396;240;1267;-44
2021/03/16 05:37:48;;;;;;;;;;;21.20;34.70;;;;;;491446;240;1184;-44
2021/03/16 05:39:49;;;;;;;;;;;21.20;34.70;;;;;;491378;240;1083;-45
2021/03/16 05:41:51;;;;;;;;;;;21.20;34.60;;;;;;491343;240;1479;-45
2021/03/16 05:43:52;;;;;;;;;;;21.20;34.60;;;;;;491425;240;1216;-44
2021/03/16 05:45:53;;;;;;;;;;;21.20;34.60;;;;;;491584;240;1035;-45
2021/03/16 05:47:55;;;;;;;;;;;21.20;34.60;;;;;;491547;240;1033;-45
2021/03/16 05:49:56;;;;;;;;;;;21.30;34.70;;;;;;491598;240;1099;-45
2021/03/16 05:51:57;;;;;;;;;;;21.30;34.70;;;;;;491530;240;2187;-45
2021/03/16 05:53:58;;;;;;;;;;;21.30;34.60;;;;;;491502;240;1085;-45
2021/03/16 05:56:00;;;;;;;;;;;21.30;34.60;;;;;;491427;240;1096;-45
2021/03/16 05:58:01;;;;;;;;;;;21.30;34.60;;;;;;491408;240;1052;-45
2021/03/16 06:00:02;;;;;;;;;;;21.30;34.70;;;;;;491459;241;1165;-45
2021/03/16 06:02:04;;;;;;;;;;;21.30;34.70;;;;;;491350;240;1143;-45
2021/03/16 06:04:05;;;;;;;;;;;21.30;34.60;;;;;;491400;241;1077;-45
2021/03/16 06:06:06;;;;;;;;;;;21.30;34.60;;;;;;491385;240;1124;-45
2021/03/16 06:08:07;;;;;;;;;;;21.30;34.60;;;;;;491384;240;1081;-45
2021/03/16 06:10:09;;;;;;;;;;;21.40;34.60;;;;;;491389;240;1043;-45
2021/03/16 06:12:10;;;;;;;;;;;21.30;34.60;;;;;;491244;240;2180;-45
2021/03/16 06:14:11;;;;;;;;;;;21.30;34.50;;;;;;491342;241;1183;-44
2021/03/16 06:16:13;;;;;;;;;;;21.30;34.60;;;;;;491317;240;1067;-45
2021/03/16 06:18:14;;;;;;;;;;;21.30;34.50;;;;;;491325;240;1049;-44
2021/03/16 06:20:15;;;;;;;;;;;21.30;34.60;;;;;;491303;240;1079;-45
2021/03/16 06:22:16;;;;;;;;;;;21.30;34.60;;;;;;491301;240;1076;-44
2021/03/16 06:24:18;;;;;;;;;;;21.40;34.60;;;;;;491376;240;1031;-45
2021/03/16 06:26:19;;;;;;;;;;;21.40;34.60;;;;;;491230;240;1214;-45
2021/03/16 06:28:20;;;;;;;;;;;21.40;34.60;;;;;;491330;240;1065;-45
2021/03/16 06:30:21;;;;;;;;;;;21.40;34.50;;;;;;491356;241;1176;-44
2021/03/16 06:32:23;;;;;;;;;;;21.40;34.50;;;;;;491283;241;2176;-45
2021/03/16 06:34:24;;;;;;;;;;;21.40;34.50;;;;;;491522;240;1040;-45
2021/03/16 06:36:26;;;;;;;;;;;21.40;34.50;;;;;;491242;241;1310;-45
2021/03/16 06:38:27;;;;;;;;;;;21.40;34.50;;;;;;491253;240;1109;-45
2021/03/16 06:40:28;;;;;;;;;;;21.40;34.40;;;;;;491234;240;1117;-44
2021/03/16 06:42:30;;;;;;;;;;;21.40;34.50;;;;;;491180;240;1313;-45
2021/03/16 06:44:31;;;;;;;;;;;21.40;34.50;;;;;;491045;240;1199;-45
2021/03/16 06:46:32;;;;;;;;;;;21.50;34.50;;;;;;491128;242;1161;-44
2021/03/16 06:48:34;;;;;;;;;;;21.40;34.50;;;;;;491319;240;1084;-45
2021/03/16 06:50:35;;;;;;;;;;;21.40;34.50;;;;;;491286;241;1200;-45
2021/03/16 06:52:36;;;;;;;;;;;21.50;34.60;;;;;;491310;240;2137;-45
2021/03/16 06:54:37;;;;;;;;;;;21.40;34.50;;;;;;491194;240;1058;-45
2021/03/16 06:56:39;;;;;;;;;;;21.40;34.50;;;;;;491181;240;1232;-45
2021/03/16 06:58:40;;;;;;;;;;;21.50;34.50;;;;;;491196;240;1131;-45
2021/03/16 07:00:41;;;;;;;;;;;21.50;34.40;;;;;;491243;240;1203;-44
2021/03/16 07:02:42;;;;;;;;;;;21.50;34.50;;;;;;490977;240;1063;-45
2021/03/16 07:04:44;;;;;;;;;;;21.50;34.50;;;;;;491102;240;1079;-45
2021/03/16 07:06:45;;;;;;;;;;;21.50;34.50;;;;;;490878;240;1127;-45
2021/03/16 07:08:46;;;;;;;;;;;21.50;34.50;;;;;;491097;240;1039;-45
2021/03/16 07:10:48;;;;;;;;;;;21.50;34.50;;;;;;491035;240;1128;-44
2021/03/16 07:12:49;;;;;;;;;;;21.50;34.50;;;;;;491077;240;2137;-45
2021/03/16 07:14:50;;;;;;;;;;;21.50;34.50;;;;;;490992;240;1239;-45
2021/03/16 07:16:52;;;;;;;;;;;21.50;34.50;;;;;;491008;240;1058;-45
2021/03/16 07:18:53;;;;;;;;;;;21.50;34.50;;;;;;491043;240;1072;-45
2021/03/16 07:20:55;;;;;;;;;;;21.50;34.40;;;;;;490818;241;1081;-45
2021/03/16 07:22:56;;;;;;;;;;;21.50;34.50;;;;;;491010;240;1138;-44
2021/03/16 07:24:57;;;;;;;;;;;21.50;34.40;;;;;;490966;240;1085;-45
2021/03/16 07:26:59;;;;;;;;;;;21.50;34.50;;;;;;490906;240;1127;-45
2021/03/16 07:29:00;;;;;;;;;;;21.50;34.40;;;;;;491005;241;1125;-45
2021/03/16 07:31:01;;;;;;;;;;;21.50;34.40;;;;;;490949;241;1158;-45
2021/03/16 07:33:03;;;;;;;;;;;21.50;34.40;;;;;;490851;240;2183;-45
2021/03/16 07:35:04;;;;;;;;;;;21.50;34.40;;;;;;490779;240;1145;-44
2021/03/16 07:37:05;;;;;;;;;;;21.50;34.40;;;;;;490940;240;1314;-45
2021/03/16 07:39:07;;;;;;;;;;;21.50;34.40;;;;;;491140;241;1068;-45
2021/03/16 07:41:08;;;;;;;;;;;21.60;34.40;;;;;;491100;240;1077;-44
2021/03/16 07:43:10;;;;;;;;;;;21.50;34.40;;;;;;491097;240;1051;-45
2021/03/16 07:45:11;;;;;;;;;;;21.50;34.40;;;;;;490766;240;1488;-45
2021/03/16 07:47:12;;;;;;;;;;;21.50;34.40;;;;;;490820;241;1113;-45
2021/03/16 07:49:13;;;;;;;;;;;21.50;34.40;;;;;;490783;240;1071;-45
2021/03/16 07:51:15;;;;;;;;;;;21.50;34.40;;;;;;490712;241;1198;-45
2021/03/16 07:53:16;;;;;;;;;;;21.50;34.40;;;;;;490874;240;2134;-45
2021/03/16 07:55:17;;;;;;;;;;;21.50;34.40;;;;;;490925;240;1221;-45
2021/03/16 07:57:19;;;;;;;;;;;21.50;34.40;;;;;;490943;240;1347;-44
2021/03/16 07:59:20;;;;;;;;;;;21.60;34.40;;;;;;490693;240;1054;-45
2021/03/16 08:01:21;;;;;;;;;;;21.50;34.40;;;;;;490697;240;1167;-44
2021/03/16 08:03:22;;;;;;;;;;;21.60;34.40;;;;;;490852;240;1043;-45
2021/03/16 08:05:24;;;;;;;;;;;21.60;34.40;;;;;;490923;240;1109;-45
2021/03/16 08:07:25;;;;;;;;;;;21.50;34.40;;;;;;490918;241;1085;-45
2021/03/16 08:09:26;;;;;;;;;;;21.60;34.40;;;;;;490850;240;1181;-45
2021/03/16 08:11:27;;;;;;;;;;;21.60;34.40;;;;;;490755;240;1289;-45
2021/03/16 08:13:29;;;;;;;;;;;21.60;34.40;;;;;;490753;241;2152;-44
2021/03/16 08:15:30;;;;;;;;;;;21.60;34.40;;;;;;490828;240;1175;-45
2021/03/16 08:17:32;;;;;;;;;;;21.60;34.40;;;;;;490826;240;1522;-45
2021/03/16 08:19:33;;;;;;;;;;;21.60;34.40;;;;;;490918;240;1105;-45
2021/03/16 08:21:34;;;;;;;;;;;21.60;34.40;;;;;;490728;240;1168;-44
2021/03/16 08:23:36;;;;;;;;;;;21.60;34.40;;;;;;490774;240;1116;-45
2021/03/16 08:25:37;;;;;;;;;;;21.60;34.40;;;;;;490701;240;1299;-44
2021/03/16 08:27:39;;;;;;;;;;;21.60;34.30;;;;;;490686;241;1185;-44
2021/03/16 08:29:40;;;;;;;;;;;21.60;34.40;;;;;;490542;240;1168;-45
2021/03/16 08:31:41;;;;;;;;;;;21.60;34.40;;;;;;490746;241;1295;-44
2021/03/16 08:33:43;;;;;;;;;;;21.60;34.40;;;;;;491455;240;2195;-45
2021/03/16 08:35:44;;;;;;;;;;;21.60;34.40;;;;;;491021;240;1228;-45
2021/03/16 08:37:45;;;;;;;;;;;21.60;34.40;;;;;;490675;240;1092;-45
2021/03/16 08:39:47;;;;;;;;;;;21.60;34.40;;;;;;490656;241;1100;-44
2021/03/16 08:41:48;;;;;;;;;;;21.60;34.40;;;;;;490745;240;1212;-45
2021/03/16 08:43:49;;;;;;;;;;;21.60;34.40;;;;;;490647;240;1096;-45
2021/03/16 08:45:51;;;;;;;;;;;21.60;34.40;;;;;;490709;241;1703;-45
2021/03/16 08:47:52;;;;;;;;;;;21.60;34.30;;;;;;490646;241;1232;-45
2021/03/16 08:49:53;;;;;;;;;;;21.70;34.40;;;;;;490736;240;1372;-45
2021/03/16 08:51:54;;;;;;;;;;;21.70;34.40;;;;;;490773;240;1241;-45
2021/03/16 08:53:56;;;;;;;;;;;21.70;34.30;;;;;;491588;240;2188;-44
2021/03/16 08:55:58;;;;;;;;;;;21.70;34.30;;;;;;491574;240;1020;-45
2021/03/16 08:57:58;;;;;;;;;;;21.70;34.30;;;;;;491057;240;2207;-44
2021/03/16 08:59:59;;;;;;;;;;;21.70;34.30;;;;;;491057;240;899;-45
2021/03/16 09:02:01;;;;;;;;;;;21.60;34.30;;;;;;491157;240;1212;-44
2021/03/16 09:04:02;;;;;;;;;;;21.70;34.30;;;;;;491042;240;989;-45
2021/03/16 09:06:03;;;;;;;;;;;21.70;34.30;;;;;;491489;240;1185;-45
2021/03/16 09:08:06;;;;;;;;;;;21.70;34.30;;;;;;491015;240;1195;-45
2021/03/16 09:10:07;;;;;;;;;;;21.70;34.30;;;;;;491033;240;1081;-45
2021/03/16 09:12:09;;;;;;;;;;;21.70;34.30;;;;;;491531;240;841;-45
2021/03/16 09:14:10;;;;;;;;;;;21.70;34.30;;;;;;491561;240;2187;-45
2021/03/16 09:16:11;;;;;;;;;;;21.70;34.30;;;;;;491436;240;1062;-44
2021/03/16 09:18:12;;;;;;;;;;;21.70;34.30;;;;;;491179;240;848;-45
2021/03/16 09:20:14;;;;;;;;;;;21.70;34.30;;;;;;491044;240;839;-45
2021/03/16 09:22:15;;;;;;;;;;;21.70;34.30;;;;;;491523;240;1263;-45
2021/03/16 09:24:16;;;;;;;;;;;21.70;34.30;;;;;;491574;240;831;-44
2021/03/16 09:26:18;;;;;;;;;;;21.70;34.30;;;;;;491356;240;1039;-44
2021/03/16 09:28:21;;;;;;;;;;;21.70;34.30;;;;;;491014;242;1007;-45
2021/03/16 09:30:20;;;;;;;;;;;21.70;34.30;;;;;;491088;240;1933;-45
2021/03/16 09:32:21;;;;;;;;;;;21.70;34.30;;;;;;491003;240;1180;-44
2021/03/16 09:34:23;;;;;;;;;;;21.70;34.20;;;;;;491620;240;2204;-44
2021/03/16 09:36:24;;;;;;;;;;;21.70;34.20;;;;;;491458;240;1206;-44
2021/03/16 09:38:25;;;;;;;;;;;21.70;34.30;;;;;;490825;240;1000;-45
2021/03/16 09:40:26;;;;;;;;;;;21.70;34.30;;;;;;491305;240;1254;-45
2021/03/16 09:42:28;;;;;;;;;;;21.70;34.30;;;;;;491301;240;1085;-45
2021/03/16 09:44:29;;;;;;;;;;;21.70;34.30;;;;;;490777;240;771;-45
2021/03/16 09:46:30;;;;;;;;;;;21.70;34.30;;;;;;490501;240;1156;-45
2021/03/16 09:48:32;;;;;;;;;;;21.70;34.30;;;;;;491215;240;739;-45
2021/03/16 09:50:33;;;;;;;;;;;21.70;34.30;;;;;;491251;240;1162;-45
2021/03/16 09:52:34;;;;;;;;;;;21.70;34.30;;;;;;491079;240;942;-45
2021/03/16 09:54:35;;;;;;;;;;;21.70;34.30;;;;;;491432;240;2184;-44
2021/03/16 09:56:37;;;;;;;;;;;21.70;34.30;;;;;;491426;240;1177;-45
2021/03/16 09:58:38;;;;;;;;;;;21.70;34.30;;;;;;491446;240;987;-45
2021/03/16 10:00:39;;;;;;;;;;;21.70;34.20;;;;;;491435;240;880;-45
2021/03/16 10:02:41;;;;;;;;;;;21.70;34.20;;;;;;490967;240;1194;-45
2021/03/16 10:04:42;;;;;;;;;;;21.70;34.20;;;;;;491567;240;1301;-45
2021/03/16 10:06:43;;;;;;;;;;;21.70;34.20;;;;;;491608;240;831;-45
2021/03/16 10:08:44;;;;;;;;;;;21.80;34.20;;;;;;491079;242;849;-44
2021/03/16 10:10:46;;;;;;;;;;;21.70;34.30;;;;;;490853;240;1340;-45
2021/03/16 10:12:47;;;;;;;;;;;21.70;34.30;;;;;;491278;240;664;-45
2021/03/16 10:14:48;;;;;;;;;;;21.70;34.20;;;;;;490693;240;2188;-45
2021/03/16 10:16:50;;;;;;;;;;;21.70;34.20;;;;;;490641;240;1039;-45
2021/03/16 10:18:51;;;;;;;;;;;21.70;34.30;;;;;;491126;240;692;-45
2021/03/16 10:20:52;;;;;;;;;;;21.70;34.30;;;;;;491404;240;1206;-45
2021/03/16 10:22:53;;;;;;;;;;;21.70;34.30;;;;;;491313;240;1091;-45
2021/03/16 10:24:55;;;;;;;;;;;21.70;34.30;;;;;;490745;240;739;-45
2021/03/16 10:26:56;;;;;;;;;;;21.70;34.30;;;;;;490600;240;1044;-45
2021/03/16 10:28:57;;;;;;;;;;;21.70;34.20;;;;;;490887;240;874;-45
2021/03/16 10:30:59;;;;;;;;;;;21.70;34.20;;;;;;491280;240;1446;-45
2021/03/16 10:33:00;;;;;;;;;;;21.70;34.30;;;;;;491033;240;1220;-45
2021/03/16 10:35:01;;;;;;;;;;;21.80;34.30;;;;;;491086;240;2172;-45
2021/03/16 10:37:02;;;;;;;;;;;21.80;34.20;;;;;;490929;240;1161;-44
2021/03/16 10:39:04;;;;;;;;;;;21.80;34.20;;;;;;490999;240;774;-45
2021/03/16 10:41:05;;;;;;;;;;;21.80;34.30;;;;;;490472;240;1435;-45
2021/03/16 10:43:06;;;;;;;;;;;21.80;34.20;;;;;;491197;240;1051;-44
2021/03/16 10:45:07;;;;;;;;;;;21.70;34.30;;;;;;490910;240;701;-45
2021/03/16 10:47:09;;;;;;;;;;;21.70;34.30;;;;;;491156;240;1534;-44
2021/03/16 10:49:10;;;;;;;;;;;21.70;34.20;;;;;;491177;240;826;-45
2021/03/16 10:51:11;;;;;;;;;;;21.80;34.30;;;;;;490596;240;1191;-45
2021/03/16 10:53:13;;;;;;;;;;;21.80;34.30;;;;;;490900;240;811;-45
2021/03/16 10:55:14;;;;;;;;;;;21.70;34.20;;;;;;490990;240;778;-45
2021/03/16 10:57:15;;;;;;;;;;;21.70;34.20;;;;;;491070;240;1148;-44
2021/03/16 10:59:16;;;;;;;;;;;21.80;34.20;;;;;;490924;240;864;-45
2021/03/16 11:01:18;;;;;;;;;;;21.80;34.20;;;;;;490993;240;1381;-45
2021/03/16 11:03:19;;;;;;;;;;;21.80;34.20;;;;;;490638;240;1137;-45
2021/03/16 11:05:20;;;;;;;;;;;21.80;34.20;;;;;;490983;240;1020;-45
2021/03/16 11:07:21;;;;;;;;;;;21.80;34.20;;;;;;490128;240;837;-45
2021/03/16 11:09:23;;;;;;;;;;;21.80;34.20;;;;;;490755;240;829;-45
2021/03/16 11:11:24;;;;;;;;;;;21.80;34.20;;;;;;490354;240;762;-44
2021/03/16 11:13:25;;;;;;;;;;;21.80;34.20;;;;;;491005;240;2180;-45
2021/03/16 11:15:27;;;;;;;;;;;21.80;34.20;;;;;;490432;240;725;-45
2021/03/16 11:17:28;;;;;;;;;;;21.80;34.20;;;;;;490562;240;1258;-45
2021/03/16 11:19:29;;;;;;;;;;;21.80;34.20;;;;;;490839;240;781;-45
2021/03/16 11:21:30;;;;;;;;;;;21.80;34.20;;;;;;491116;240;1337;-45
2021/03/16 11:23:32;;;;;;;;;;;21.80;34.20;;;;;;491307;240;719;-45
2021/03/16 11:25:33;;;;;;;;;;;21.80;34.20;;;;;;491257;240;782;-45
2021/03/16 11:27:34;;;;;;;;;;;21.80;34.20;;;;;;491280;240;1208;-45
2021/03/16 11:29:35;;;;;;;;;;;21.80;34.20;;;;;;491244;240;793;-45
2021/03/16 11:31:37;;;;;;;;;;;21.80;34.20;;;;;;490544;240;1077;-45
2021/03/16 11:33:38;;;;;;;;;;;21.80;34.10;;;;;;490849;240;2195;-45
2021/03/16 11:35:39;;;;;;;;;;;21.80;34.10;;;;;;490965;240;1430;-45
2021/03/16 11:37:41;;;;;;;;;;;21.80;34.10;;;;;;490482;240;1216;-45
2021/03/16 11:39:44;;;;;;;;;;;21.80;34.10;;;;;;491099;240;782;-45
2021/03/16 11:41:43;;;;;;;;;;;21.80;34.20;;;;;;490754;242;2356;-45
2021/03/16 11:43:44;;;;;;;;;;;21.80;34.20;;;;;;491197;240;698;-45
2021/03/16 11:45:46;;;;;;;;;;;21.80;34.20;;;;;;491248;240;1474;-45
2021/03/16 11:47:47;;;;;;;;;;;21.80;34.20;;;;;;491280;240;1083;-45
2021/03/16 11:49:48;;;;;;;;;;;21.80;34.10;;;;;;491333;240;921;-44
2021/03/16 11:51:49;;;;;;;;;;;21.80;34.10;;;;;;490849;240;1115;-45
2021/03/16 11:53:51;;;;;;;;;;;21.90;34.10;;;;;;490710;240;2189;-44
2021/03/16 11:55:52;;;;;;;;;;;21.80;34.10;;;;;;491002;240;1142;-45